Time;durP1;ratioP1;P1;durP2;ratioP2;P2;SDS_P1;SDS_P2;PMS_P1;PMS_P2;Temp;Humidity;BMP_temperature;BMP_pressure;BME280_temperature;BME280_humidity;BME280_pressure;Samples;Min_cycle;Max_cycle;Signal;HPM_P1;HPM_P2
2024/01/21 00:01:46;;;;;;;364.00;143.40;;;;;;;;;;5001538;28;20211;-53
2024/01/21 00:04:12;;;;;;;374.83;149.87;;;;;;;;;;5003330;28;20579;-52
2024/01/21 00:06:38;;;;;;;401.00;154.77;;;;;;;;;;4999923;28;20630;-53
2024/01/21 00:09:04;;;;;;;365.50;139.97;;;;;;;;;;5001687;28;20228;-53
2024/01/21 00:11:30;;;;;;;392.23;153.30;;;;;;;;;;4998721;28;20657;-53
2024/01/21 00:13:56;;;;;;;428.10;170.83;;;;;;;;;;4997441;28;20186;-53
2024/01/21 00:16:22;;;;;;;396.27;154.53;;;;;;;;;;5002141;28;20503;-53
2024/01/21 00:18:48;;;;;;;339.17;133.00;;;;;;;;;;5002814;28;20749;-53
2024/01/21 00:21:14;;;;;;;367.57;144.83;;;;;;;;;;5003580;28;20224;-52
2024/01/21 00:23:40;;;;;;;360.27;139.73;;;;;;;;;;5000503;28;20223;-52
2024/01/21 00:26:06;;;;;;;400.30;157.00;;;;;;;;;;5000083;28;20699;-53
2024/01/21 00:28:32;;;;;;;402.63;156.03;;;;;;;;;;4979884;28;20255;-53
2024/01/21 00:30:58;;;;;;;363.37;142.23;;;;;;;;;;4997980;28;20208;-52
2024/01/21 00:33:24;;;;;;;415.73;166.03;;;;;;;;;;5001812;28;20304;-53
2024/01/21 00:35:50;;;;;;;365.13;140.47;;;;;;;;;;5004121;28;20223;-53
2024/01/21 00:38:16;;;;;;;365.50;143.73;;;;;;;;;;5005726;28;20270;-53
2024/01/21 00:40:42;;;;;;;346.20;134.47;;;;;;;;;;5003011;28;20188;-53
2024/01/21 00:43:08;;;;;;;375.63;146.53;;;;;;;;;;5003315;28;20703;-53
2024/01/21 00:45:34;;;;;;;380.70;149.90;;;;;;;;;;4986812;28;20537;-52
2024/01/21 00:47:59;;;;;;;348.33;134.93;;;;;;;;;;4986927;28;20216;-53
2024/01/21 00:50:26;;;;;;;387.40;149.50;;;;;;;;;;5002681;28;20251;-53
2024/01/21 00:52:52;;;;;;;356.80;138.47;;;;;;;;;;5007602;28;20583;-52
2024/01/21 00:55:19;;;;;;;361.03;138.93;;;;;;;;;;4999138;28;20500;-52
2024/01/21 00:57:45;;;;;;;366.10;142.60;;;;;;;;;;5010618;28;20663;-53
2024/01/21 01:00:11;;;;;;;346.50;137.77;;;-3.00;99.90;;;;;;5003336;28;20382;-53
2024/01/21 01:02:36;;;;;;;392.60;158.47;;;;;;;;;;5009220;28;20226;-53
2024/01/21 01:05:02;;;;;;;368.30;146.97;;;;;;;;;;5004740;28;20944;-53
2024/01/21 01:07:28;;;;;;;377.00;153.70;;;;;;;;;;4983267;28;20278;-53
2024/01/21 01:09:54;;;;;;;362.37;141.03;;;;;;;;;;5001231;28;20236;-52
2024/01/21 01:12:21;;;;;;;373.47;145.23;;;;;;;;;;5005979;28;20216;-53
2024/01/21 01:14:47;;;;;;;356.93;142.67;;;;;;;;;;5000295;28;20212;-52
2024/01/21 01:17:13;;;;;;;340.87;136.00;;;;;;;;;;5001753;28;20209;-53
2024/01/21 01:19:39;;;;;;;376.70;153.17;;;;;;;;;;5005176;28;20176;-53
2024/01/21 01:22:05;;;;;;;361.03;145.37;;;;;;;;;;5005003;28;20231;-52
2024/01/21 01:24:31;;;;;;;397.10;162.43;;;;;;;;;;4988017;28;20302;-53
2024/01/21 01:26:57;;;;;;;366.10;147.57;;;;;;;;;;4984335;28;20234;-53
2024/01/21 01:29:22;;;;;;;343.10;134.10;;;;;;;;;;5001733;28;20220;-53
2024/01/21 01:31:48;;;;;;;340.03;134.37;;;;;;;;;;5010742;28;20656;-53
2024/01/21 01:34:14;;;;;;;350.47;136.73;;;;;;;;;;5004568;28;20219;-53
2024/01/21 01:36:40;;;;;;;380.87;149.40;;;;;;;;;;4998317;28;20671;-53
2024/01/21 01:39:09;;;;;;;382.10;155.90;;;;;;;;;;4991598;28;20493;-52
2024/01/21 01:41:35;;;;;;;365.17;147.53;;;;;;;;;;4995384;28;20212;-53
2024/01/21 01:44:02;;;;;;;382.70;151.80;;;;;;;;;;4996636;28;20549;-53
2024/01/21 01:46:28;;;;;;;305.73;121.37;;;;;;;;;;5004545;28;20294;-50
2024/01/21 01:48:54;;;;;;;313.43;122.53;;;-3.30;99.90;;;;;;5028830;28;20283;-50
2024/01/21 01:51:20;;;;;;;308.07;122.57;;;;;;;;;;5028904;28;20715;-49
2024/01/21 01:53:46;;;;;;;314.87;120.93;;;;;;;;;;5028645;28;20627;-50
2024/01/21 01:56:12;;;;;;;313.63;124.63;;;;;;;;;;5021704;28;20200;-50
2024/01/21 01:58:40;;;;;;;339.27;134.33;;;-3.40;99.90;;;;;;5009103;28;20614;-50
2024/01/21 02:01:07;;;;;;;313.70;127.70;;;;;;;;;;5008292;28;20227;-50
2024/01/21 02:03:33;;;;;;;321.40;129.03;;;;;;;;;;5008743;28;20213;-50
2024/01/21 02:05:58;;;;;;;331.70;134.00;;;-3.40;99.90;;;;;;5008538;28;20620;-50
2024/01/21 02:08:24;;;;;;;315.23;128.07;;;;;;;;;;5008366;28;20216;-50
2024/01/21 02:10:50;;;;;;;313.40;127.53;;;;;;;;;;5009068;28;20302;-50
2024/01/21 02:13:16;;;;;;;310.20;125.90;;;;;;;;;;5008272;28;20212;-50
2024/01/21 02:15:42;;;;;;;313.80;124.40;;;;;;;;;;5008652;28;20587;-50
2024/01/21 02:18:09;;;;;;;326.97;127.73;;;-3.50;99.90;;;;;;5008128;28;20224;-50
2024/01/21 02:20:35;;;;;;;317.03;126.33;;;;;;;;;;5008214;28;20212;-50
2024/01/21 02:23:02;;;;;;;316.57;124.73;;;;;;;;;;5008161;28;20695;-50
2024/01/21 02:25:28;;;;;;;312.00;124.00;;;;;;;;;;5008364;28;20374;-50
2024/01/21 02:27:53;;;;;;;307.57;125.50;;;-3.50;99.90;;;;;;5008251;28;20213;-50
2024/01/21 02:30:19;;;;;;;320.93;129.40;;;;;;;;;;5008177;28;20239;-50
2024/01/21 02:32:45;;;;;;;306.97;123.87;;;;;;;;;;5007923;28;20221;-50
2024/01/21 02:35:11;;;;;;;328.30;131.90;;;;;;;;;;5007950;28;20239;-50
2024/01/21 02:37:37;;;;;;;316.70;124.57;;;;;;;;;;5008045;28;20205;-50
2024/01/21 02:40:03;;;;;;;319.33;125.30;;;-3.40;99.90;;;;;;5007611;28;20692;-50
2024/01/21 02:42:29;;;;;;;299.20;121.87;;;;;;;;;;5007838;28;20312;-50
2024/01/21 02:44:55;;;;;;;307.83;126.27;;;;;;;;;;5007595;28;20320;-50
2024/01/21 02:47:23;;;;;;;304.93;122.53;;;;;;;;;;5007766;28;20220;-50
2024/01/21 02:49:49;;;;;;;304.63;120.53;;;;;;;;;;5008076;28;20230;-50
2024/01/21 02:52:15;;;;;;;312.20;123.20;;;;;;;;;;5007595;28;20471;-49
2024/01/21 02:54:41;;;;;;;313.77;122.03;;;;;;;;;;5007503;28;20227;-49
2024/01/21 02:57:07;;;;;;;328.03;128.87;;;;;;;;;;5006958;28;20252;-50
2024/01/21 02:59:32;;;;;;;317.77;126.00;;;;;;;;;;5007579;28;20315;-50
2024/01/21 03:01:58;;;;;;;315.97;125.27;;;;;;;;;;5007896;28;20307;-50
2024/01/21 03:04:24;;;;;;;315.33;124.93;;;;;;;;;;5007387;28;20324;-50
2024/01/21 03:06:50;;;;;;;315.20;126.67;;;-3.50;99.90;;;;;;5007487;28;20315;-50
2024/01/21 03:09:16;;;;;;;317.23;125.97;;;;;;;;;;5007415;28;20247;-50
2024/01/21 03:11:42;;;;;;;319.03;126.77;;;;;;;;;;5007620;28;20236;-50
2024/01/21 03:14:08;;;;;;;312.73;124.17;;;;;;;;;;5007087;28;20540;-50
2024/01/21 03:16:34;;;;;;;324.30;128.93;;;;;;;;;;5007423;28;20205;-50
2024/01/21 03:19:00;;;;;;;327.47;129.43;;;;;;;;;;5007174;28;20280;-50
2024/01/21 03:21:26;;;;;;;305.87;124.93;;;;;;;;;;5005863;28;20221;-50
2024/01/21 03:23:52;;;;;;;301.30;120.57;;;;;;;;;;5006939;28;20251;-50
2024/01/21 03:26:18;;;;;;;321.17;126.77;;;;;;;;;;5007032;28;20189;-50
2024/01/21 03:28:43;;;;;;;316.73;125.67;;;-3.50;99.90;;;;;;5007646;28;20174;-50
2024/01/21 03:31:09;;;;;;;311.13;124.33;;;;;;;;;;5007157;28;20223;-49
2024/01/21 03:33:35;;;;;;;324.17;126.80;;;;;;;;;;5005448;28;20232;-50
2024/01/21 03:36:01;;;;;;;328.70;130.63;;;;;;;;;;5006876;28;20699;-50
2024/01/21 03:38:27;;;;;;;328.33;130.73;;;;;;;;;;5006769;28;20232;-51
2024/01/21 03:40:53;;;;;;;325.37;127.77;;;;;;;;;;5007407;28;20315;-50
2024/01/21 03:43:19;;;;;;;316.20;127.63;;;;;;;;;;5006838;28;20303;-50
2024/01/21 03:45:45;;;;;;;316.57;124.87;;;;;;;;;;5006993;28;20228;-50
2024/01/21 03:48:11;;;;;;;315.93;123.23;;;;;;;;;;5006810;28;20323;-50
2024/01/21 03:50:36;;;;;;;319.43;125.70;;;-3.20;99.90;;;;;;5006805;28;20251;-50
2024/01/21 03:53:02;;;;;;;323.33;128.13;;;;;;;;;;5006593;28;20691;-50
2024/01/21 03:55:28;;;;;;;310.67;124.83;;;-3.50;99.90;;;;;;5007552;28;20177;-50
2024/01/21 03:57:54;;;;;;;322.70;127.50;;;;;;;;;;5006693;28;20515;-50
2024/01/21 04:00:20;;;;;;;331.90;131.30;;;;;;;;;;5006855;28;20244;-50
2024/01/21 04:02:46;;;;;;;302.87;119.40;;;;;;;;;;5006753;28;20215;-50
2024/01/21 04:05:12;;;;;;;317.17;130.33;;;;;;;;;;5006872;28;20255;-50
2024/01/21 04:07:38;;;;;;;332.70;131.73;;;;;;;;;;5007476;28;20173;-50
2024/01/21 04:10:05;;;;;;;315.03;125.57;;;;;;;;;;5010033;28;20561;-50
2024/01/21 04:12:31;;;;;;;331.57;130.83;;;;;;;;;;5010425;28;20213;-50
2024/01/21 04:14:57;;;;;;;338.23;131.87;;;;;;;;;;5010668;28;20275;-50
2024/01/21 04:17:23;;;;;;;307.67;120.70;;;-3.30;97.90;;;;;;5010498;28;20751;-50
2024/01/21 04:19:49;;;;;;;317.73;127.00;;;;;;;;;;5010964;28;20181;-50
2024/01/21 04:22:18;;;;;;;341.97;133.47;;;-3.30;97.90;;;;;;5010851;28;20597;-50
2024/01/21 04:24:44;;;;;;;310.53;124.00;;;;;;;;;;5010359;28;20220;-50
2024/01/21 04:27:10;;;;;;;328.70;130.60;;;;;;;;;;5010510;28;20291;-50
2024/01/21 04:29:36;;;;;;;315.83;127.87;;;;;;;;;;5010347;28;20213;-49
2024/01/21 04:32:02;;;;;;;329.87;131.60;;;;;;;;;;5010314;28;20702;-50
2024/01/21 04:34:27;;;;;;;319.17;126.90;;;-3.40;99.90;;;;;;5010859;28;20165;-50
2024/01/21 04:36:53;;;;;;;326.87;129.47;;;;;;;;;;5010276;28;20248;-50
2024/01/21 04:39:21;;;;;;;317.57;127.53;;;-3.30;99.90;;;;;;5010484;28;20220;-50
2024/01/21 04:41:47;;;;;;;320.27;128.50;;;;;;;;;;5010424;28;20282;-50
2024/01/21 04:44:13;;;;;;;314.50;126.63;;;;;;;;;;5010082;28;20173;-50
2024/01/21 04:46:39;;;;;;;315.37;124.13;;;;;;;;;;5010548;28;20205;-50
2024/01/21 04:49:04;;;;;;;316.00;124.97;;;-3.40;99.90;;;;;;5009957;28;20288;-50
2024/01/21 04:51:31;;;;;;;324.50;128.60;;;;;;;;;;5010155;28;20220;-50
2024/01/21 04:53:57;;;;;;;316.47;127.13;;;;;;;;;;5009744;28;20220;-50
2024/01/21 04:56:23;;;;;;;292.90;119.00;;;;;;;;;;5010311;28;20228;-50
2024/01/21 04:58:48;;;;;;;305.67;121.40;;;-3.50;99.90;;;;;;5010575;28;20259;-50
2024/01/21 05:01:16;;;;;;;304.63;123.67;;;-3.50;99.90;;;;;;5009886;28;20706;-50
2024/01/21 05:03:42;;;;;;;339.83;134.27;;;;;;;;;;5010001;28;20651;-50
2024/01/21 05:06:07;;;;;;;331.37;131.50;;;-3.70;99.90;;;;;;5009731;28;20572;-50
2024/01/21 05:08:34;;;;;;;333.63;135.47;;;-3.60;99.90;;;;;;5009586;28;20209;-50
2024/01/21 05:11:00;;;;;;;323.57;130.30;;;;;;;;;;5010043;28;20644;-50
2024/01/21 05:13:26;;;;;;;311.20;126.13;;;;;;;;;;5010566;28;20239;-50
2024/01/21 05:15:52;;;;;;;320.87;126.43;;;;;;;;;;5009697;28;20228;-50
2024/01/21 05:18:19;;;;;;;326.70;127.03;;;;;;;;;;5009725;28;20239;-50
2024/01/21 05:20:45;;;;;;;324.97;127.07;;;;;;;;;;5009260;28;20208;-49
2024/01/21 05:23:11;;;;;;;329.80;130.23;;;;;;;;;;5009594;28;20544;-50
2024/01/21 05:25:38;;;;;;;318.07;127.03;;;;;;;;;;5009605;28;20761;-50
2024/01/21 05:28:04;;;;;;;301.20;120.53;;;;;;;;;;5009325;28;20237;-50
2024/01/21 05:30:29;;;;;;;319.03;123.83;;;-3.60;99.90;;;;;;5009396;28;20235;-50
2024/01/21 05:32:55;;;;;;;322.87;128.03;;;-3.50;99.90;;;;;;5009379;28;20209;-50
2024/01/21 05:35:22;;;;;;;311.63;125.40;;;;;;;;;;5008999;28;20213;-50
2024/01/21 05:37:48;;;;;;;295.77;119.43;;;;;;;;;;5009873;28;20271;-50
2024/01/21 05:40:14;;;;;;;310.83;125.13;;;-3.60;99.90;;;;;;5009064;28;20462;-49
2024/01/21 05:42:40;;;;;;;314.07;125.60;;;-3.60;99.90;;;;;;5008917;28;20583;-50
2024/01/21 05:45:06;;;;;;;330.77;131.57;;;;;;;;;;5009002;28;20583;-50
2024/01/21 05:47:32;;;;;;;319.43;126.57;;;;;;;;;;5008664;28;20299;-49
2024/01/21 05:49:58;;;;;;;329.53;131.70;;;;;;;;;;5009139;28;20260;-50
2024/01/21 05:52:23;;;;;;;307.40;124.40;;;;;;;;;;5008849;28;20759;-50
2024/01/21 05:54:49;;;;;;;309.33;121.33;;;;;;;;;;5008953;28;20248;-50
2024/01/21 05:57:15;;;;;;;314.43;124.73;;;;;;;;;;5008840;28;20230;-49
2024/01/21 05:59:41;;;;;;;327.67;129.67;;;;;;;;;;5007257;28;20492;-49
2024/01/21 06:02:10;;;;;;;317.43;128.47;;;;;;;;;;5008542;28;20369;-49
2024/01/21 06:04:36;;;;;;;319.10;125.93;;;;;;;;;;5008920;28;20234;-49
2024/01/21 06:07:02;;;;;;;315.30;125.53;;;;;;;;;;5008530;28;20325;-50
2024/01/21 06:09:28;;;;;;;309.60;124.23;;;;;;;;;;5008496;28;20221;-50
2024/01/21 06:11:53;;;;;;;307.37;125.50;;;-3.90;99.90;;;;;;5008681;28;20216;-50
2024/01/21 06:14:19;;;;;;;314.73;124.80;;;;;;;;;;5008903;28;20228;-50
2024/01/21 06:16:45;;;;;;;307.90;124.03;;;-3.90;99.90;;;;;;5008791;28;20211;-50
2024/01/21 06:19:11;;;;;;;323.73;127.63;;;;;;;;;;5008223;28;20217;-50
2024/01/21 06:21:43;;;;;;;330.30;129.23;;;-4.00;99.90;;;;;;5008262;28;20275;-50
2024/01/21 06:24:09;;;;;;;323.53;130.17;;;-4.00;99.90;;;;;;5007972;28;20213;-50
2024/01/21 06:26:37;;;;;;;309.77;123.53;;;;;;;;;;5008093;28;20223;-50
2024/01/21 06:29:03;;;;;;;314.47;124.00;;;;;;;;;;5007858;28;20181;-50
2024/01/21 06:31:29;;;;;;;316.97;128.40;;;;;;;;;;5008075;28;20173;-50
2024/01/21 06:33:55;;;;;;;325.17;128.97;;;;;;;;;;5007988;28;20227;-50
2024/01/21 06:36:22;;;;;;;302.90;119.87;;;;;;;;;;5008021;28;20643;-50
2024/01/21 06:38:48;;;;;;;320.93;126.53;;;-3.90;99.90;;;;;;5007885;28;20320;-50
2024/01/21 06:41:15;;;;;;;328.33;130.60;;;-4.00;98.60;;;;;;5007762;28;20267;-50
2024/01/21 06:43:41;;;;;;;328.13;131.47;;;;;;;;;;5008324;28;20205;-50
2024/01/21 06:46:08;;;;;;;312.43;125.43;;;-3.80;99.10;;;;;;5007697;28;20314;-50
2024/01/21 06:48:33;;;;;;;306.57;123.73;;;-4.10;99.90;;;;;;5007977;28;20344;-50
2024/01/21 06:50:59;;;;;;;313.00;125.80;;;;;;;;;;5008021;28;20212;-50
2024/01/21 06:53:25;;;;;;;306.17;123.10;;;;;;;;;;5007710;28;20212;-50
2024/01/21 06:55:51;;;;;;;322.67;125.30;;;;;;;;;;5008233;28;20199;-50
2024/01/21 06:58:17;;;;;;;333.67;131.87;;;;;;;;;;5007633;28;20221;-50
2024/01/21 07:00:45;;;;;;;313.23;125.53;;;;;;;;;;5007648;28;20223;-50
2024/01/21 07:03:10;;;;;;;304.53;122.33;;;-4.00;99.90;;;;;;5008135;28;20223;-50
2024/01/21 07:05:36;;;;;;;329.73;130.97;;;;;;;;;;5007475;28;20602;-50
2024/01/21 07:08:02;;;;;;;309.67;122.90;;;;;;;;;;5007441;28;20210;-51
2024/01/21 07:10:28;;;;;;;337.53;134.63;;;;;;;;;;5007936;28;20187;-51
2024/01/21 07:12:55;;;;;;;318.43;124.57;;;;;;;;;;5007691;28;21118;-50
2024/01/21 07:15:21;;;;;;;333.13;130.97;;;;;;;;;;5007271;28;20212;-48
2024/01/21 07:17:47;;;;;;;316.00;123.80;;;;;;;;;;5007216;28;20239;-48
2024/01/21 07:20:14;;;;;;;322.83;130.93;;;;;;;;;;5006970;28;20185;-48
2024/01/21 07:22:40;;;;;;;327.03;129.90;;;;;;;;;;5008296;28;20181;-50
2024/01/21 07:25:06;;;;;;;325.57;129.20;;;;;;;;;;5007108;28;20568;-49
2024/01/21 07:27:34;;;;;;;299.00;120.20;;;-3.70;99.90;;;;;;5007699;28;20300;-50
2024/01/21 07:30:00;;;;;;;310.57;123.43;;;;;;;;;;5007283;28;20201;-49
2024/01/21 07:32:26;;;;;;;326.17;130.30;;;;;;;;;;5007450;28;20568;-50
2024/01/21 07:34:52;;;;;;;336.93;134.97;;;;;;;;;;5007590;28;20639;-50
2024/01/21 07:37:18;;;;;;;325.27;131.27;;;;;;;;;;5007012;28;20224;-50
2024/01/21 07:39:45;;;;;;;322.73;128.17;;;;;;;;;;5007143;28;20213;-49
2024/01/21 07:42:10;;;;;;;312.57;125.23;;;;;;;;;;5006849;28;20275;-49
2024/01/21 07:44:36;;;;;;;296.43;118.97;;;;;;;;;;5006988;28;20213;-49
2024/01/21 07:47:02;;;;;;;393.00;160.63;;;;;;;;;;5002264;28;20350;-51
2024/01/21 07:49:28;;;;;;;322.77;130.53;;;;;;;;;;4998489;28;20277;-51
2024/01/21 07:51:54;;;;;;;374.47;151.57;;;;;;;;;;4989587;28;20212;-50
2024/01/21 07:54:20;;;;;;;369.60;150.00;;;;;;;;;;4954789;28;20218;-51
2024/01/21 07:56:46;;;;;;;402.30;157.70;;;;;;;;;;4971037;28;20311;-51
2024/01/21 07:59:12;;;;;;;390.67;160.40;;;;;;;;;;4984719;28;20220;-51
2024/01/21 08:01:38;;;;;;;366.07;144.57;;;;;;;;;;4967536;28;20185;-51
2024/01/21 08:04:19;;;;;;;288.17;114.20;;;-2.80;99.90;;;;;;4991270;28;20208;-50
2024/01/21 08:06:45;;;;;;;351.97;140.63;;;;;;;;;;4988829;28;20311;-51
2024/01/21 08:09:12;;;;;;;355.30;141.10;;;-2.90;93.30;;;;;;4983584;28;20251;-50
2024/01/21 08:11:38;;;;;;;411.80;169.07;;;;;;;;;;5011141;28;20668;-50
2024/01/21 08:14:05;;;;;;;373.07;145.63;;;;;;;;;;4989974;28;21312;-51
2024/01/21 08:16:31;;;;;;;354.97;136.20;;;;;;;;;;4996065;28;20217;-51
2024/01/21 08:18:57;;;;;;;354.37;143.83;;;;;;;;;;4977966;28;20204;-49
2024/01/21 08:21:23;;;;;;;339.87;138.80;;;;;;;;;;4988355;28;20674;-50
2024/01/21 08:23:49;;;;;;;358.47;146.57;;;;;;;;;;4992670;28;20225;-50
2024/01/21 08:26:16;;;;;;;334.97;132.57;;;-2.40;92.50;;;;;;5000434;28;20734;-49
2024/01/21 08:28:42;;;;;;;364.17;143.13;;;;;;;;;;5003788;28;20184;-49
2024/01/21 08:31:08;;;;;;;355.53;141.27;;;;;;;;;;5000669;28;20217;-49
2024/01/21 08:33:36;;;;;;;351.57;138.83;;;-2.40;92.30;;;;;;5003253;28;20255;-49
2024/01/21 08:36:02;;;;;;;367.20;145.63;;;;;;;;;;5001184;28;20229;-49
2024/01/21 08:38:28;;;;;;;360.87;145.97;;;;;;;;;;5002519;28;20229;-49
2024/01/21 08:40:54;;;;;;;376.47;149.60;;;;;;;;;;5001727;28;20250;-51
2024/01/21 08:43:20;;;;;;;368.27;144.07;;;;;;;;;;5000706;28;20208;-50
2024/01/21 08:45:46;;;;;;;344.10;134.17;;;;;;;;;;5000888;28;20221;-50
2024/01/21 08:48:12;;;;;;;352.17;138.77;;;;;;;;;;5003744;28;21642;-50
2024/01/21 08:50:39;;;;;;;332.40;128.97;;;;;;;;;;4999638;28;20291;-50
2024/01/21 08:53:05;;;;;;;419.83;171.27;;;;;;;;;;5003582;28;20193;-49
2024/01/21 08:55:31;;;;;;;372.83;147.50;;;;;;;;;;5001707;28;20188;-51
2024/01/21 08:57:56;;;;;;;369.03;144.20;;;;;;;;;;5004132;28;20235;-50
2024/01/21 09:00:22;;;;;;;347.17;136.23;;;;;;;;;;5005240;28;20389;-51
2024/01/21 09:02:48;;;;;;;346.40;136.03;;;;;;;;;;5007353;28;20217;-51
2024/01/21 09:05:14;;;;;;;353.50;138.33;;;;;;;;;;5009586;28;20600;-51
2024/01/21 09:07:40;;;;;;;367.87;140.10;;;;;;;;;;5008101;28;20215;-51
2024/01/21 09:10:08;;;;;;;396.43;156.90;;;;;;;;;;5000310;28;20220;-51
2024/01/21 09:12:34;;;;;;;360.20;137.67;;;;;;;;;;5007727;28;20339;-51
2024/01/21 09:15:00;;;;;;;348.60;139.43;;;;;;;;;;5008138;28;20310;-50
2024/01/21 09:17:26;;;;;;;385.53;157.30;;;;;;;;;;4997956;28;20688;-51
2024/01/21 09:19:52;;;;;;;346.67;138.07;;;;;;;;;;5008233;28;20235;-51
2024/01/21 09:22:18;;;;;;;349.50;137.80;;;;;;;;;;5003599;28;20656;-51
2024/01/21 09:24:44;;;;;;;365.60;144.50;;;;;;;;;;5003561;28;20270;-50
2024/01/21 09:27:10;;;;;;;369.77;151.27;;;;;;;;;;4998360;28;20697;-51
2024/01/21 09:29:36;;;;;;;374.67;146.87;;;;;;;;;;5003617;28;20303;-50
2024/01/21 09:32:02;;;;;;;408.63;166.50;;;;;;;;;;5004191;28;20185;-50
2024/01/21 09:34:28;;;;;;;368.87;144.37;;;;;;;;;;5004882;28;20240;-51
2024/01/21 09:36:54;;;;;;;368.17;144.97;;;;;;;;;;5006167;28;20220;-51
2024/01/21 09:39:20;;;;;;;361.93;140.30;;;;;;;;;;5004105;28;20213;-51
2024/01/21 09:41:50;;;;;;;350.90;138.10;;;-1.00;83.60;;;;;;5005262;28;20232;-51
2024/01/21 09:44:18;;;;;;;364.67;141.90;;;;;;;;;;4995481;28;20689;-51
2024/01/21 09:46:44;;;;;;;352.70;138.40;;;;;;;;;;5007271;28;21906;-51
2024/01/21 09:49:11;;;;;;;388.83;151.53;;;;;;;;;;4998062;28;20223;-51
2024/01/21 09:51:39;;;;;;;365.83;144.37;;;0.20;84.80;;;;;;4999724;28;20216;-51
2024/01/21 09:54:06;;;;;;;365.93;142.80;;;;;;;;;;4999508;28;20600;-51
2024/01/21 09:56:32;;;;;;;339.30;132.13;;;;;;;;;;5001518;28;20550;-50
2024/01/21 09:58:59;;;;;;;368.90;147.40;;;;;;;;;;5009336;28;20184;-51
2024/01/21 10:01:25;;;;;;;357.20;139.10;;;;;;;;;;5001655;28;20304;-51
2024/01/21 10:03:51;;;;;;;348.53;134.57;;;;;;;;;;5002957;28;20374;-51
2024/01/21 10:06:17;;;;;;;351.57;136.10;;;;;;;;;;5001065;28;20855;-51
2024/01/21 10:08:43;;;;;;;354.10;136.50;;;;;;;;;;5002745;28;20208;-51
2024/01/21 10:11:09;;;;;;;387.37;151.83;;;;;;;;;;5001293;28;20185;-51
2024/01/21 10:13:38;;;;;;;349.17;134.33;;;;;;;;;;4996626;28;20196;-52
2024/01/21 10:16:05;;;;;;;397.50;151.53;;;;;;;;;;4999956;28;20267;-51
2024/01/21 10:18:31;;;;;;;353.63;137.87;;;;;;;;;;4998890;28;20232;-51
2024/01/21 10:20:57;;;;;;;431.70;166.40;;;;;;;;;;4992160;28;20216;-51
2024/01/21 10:23:23;;;;;;;364.33;142.40;;;;;;;;;;5004909;28;20238;-51
2024/01/21 10:25:50;;;;;;;357.17;135.80;;;;;;;;;;5005927;28;20231;-51
2024/01/21 10:28:17;;;;;;;388.27;145.63;;;;;;;;;;4999553;28;20568;-51
2024/01/21 10:30:46;;;;;;;371.63;143.13;;;;;;;;;;5003262;28;20223;-52
2024/01/21 10:33:13;;;;;;;389.77;150.73;;;;;;;;;;5002485;28;20242;-51
2024/01/21 10:35:39;;;;;;;381.60;148.17;;;;;;;;;;5002654;28;20266;-50
2024/01/21 10:38:12;;;;;;;405.63;156.43;;;;;;;;;;5000510;28;20238;-50
2024/01/21 10:40:43;;;;;;;636.13;254.90;;;;;;;;;;4996625;28;20295;-50
2024/01/21 10:43:12;;;;;;;369.43;140.83;;;;;;;;;;4989993;28;20996;-50
2024/01/21 10:45:38;;;;;;;351.30;134.90;;;;;;;;;;4997374;28;20212;-50
2024/01/21 10:48:05;;;;;;;391.87;157.60;;;;;;;;;;5010067;28;20312;-51
2024/01/21 10:50:30;;;;;;;420.77;174.87;;;;;;;;;;5004762;28;20615;-50
2024/01/21 10:52:57;;;;;;;368.87;145.57;;;;;;;;;;5013244;28;20488;-50
2024/01/21 10:55:23;;;;;;;357.30;140.07;;;;;;;;;;5007371;28;20673;-50
2024/01/21 10:57:50;;;;;;;352.30;135.53;;;;;;;;;;5011110;28;20260;-50
2024/01/21 11:00:16;;;;;;;351.87;135.67;;;;;;;;;;5014511;28;20219;-50
2024/01/21 11:03:02;;;;;;;362.50;139.40;;;;;;;;;;5013242;28;20216;-50
2024/01/21 11:05:28;;;;;;;359.87;138.97;;;;;;;;;;5005089;28;20216;-51
2024/01/21 11:08:01;;;;;;;388.17;151.00;;;;;;;;;;5005651;28;20188;-51
2024/01/21 11:10:27;;;;;;;358.33;138.80;;;;;;;;;;5000821;28;20216;-51
2024/01/21 11:12:57;;;;;;;476.77;205.30;;;1.10;70.90;;;;;;4990969;28;21029;-52
2024/01/21 11:15:29;;;;;;;404.10;159.80;;;;;;;;;;4982574;28;20223;-50
2024/01/21 11:18:08;;;;;;;374.43;143.63;;;;;;;;;;4989634;28;20266;-52
2024/01/21 11:20:34;;;;;;;412.77;157.27;;;;;;;;;;4988851;28;20231;-52
2024/01/21 11:22:59;;;;;;;439.40;179.60;;;;;;;;;;4995727;28;20189;-52
2024/01/21 11:25:33;;;;;;;388.33;151.43;;;1.10;70.40;;;;;;4990110;28;20780;-52
2024/01/21 11:28:03;;;;;;;381.67;147.50;;;-1.10;66.70;;;;;;4992964;28;20324;-52
2024/01/21 11:30:29;;;;;;;384.50;151.23;;;1.20;71.60;;;;;;4999292;28;20219;-52
2024/01/21 11:32:57;;;;;;;408.10;160.63;;;1.30;76.70;;;;;;4995646;28;20321;-52
2024/01/21 11:35:23;;;;;;;373.73;144.07;;;;;;;;;;4986536;28;20208;-51
2024/01/21 11:37:52;;;;;;;400.30;156.87;;;;;;;;;;4991317;28;20607;-52
2024/01/21 11:40:19;;;;;;;380.90;146.73;;;;;;;;;;4987982;28;20302;-51
2024/01/21 11:42:50;;;;;;;421.77;167.23;;;;;;;;;;4988870;28;20405;-52
2024/01/21 11:45:16;;;;;;;414.23;161.23;;;;;;;;;;4984547;28;20212;-52
2024/01/21 11:47:41;;;;;;;382.03;153.10;;;1.70;73.00;;;;;;4988787;28;20220;-52
2024/01/21 11:50:09;;;;;;;423.20;171.87;;;1.50;68.70;;;;;;4987492;28;20199;-52
2024/01/21 11:52:36;;;;;;;407.27;163.93;;;;;;;;;;4980641;28;20299;-52
2024/01/21 11:55:02;;;;;;;400.83;159.63;;;;;;;;;;4990784;28;20215;-51
2024/01/21 11:57:29;;;;;;;398.70;156.60;;;;;;;;;;4987424;28;20220;-51
2024/01/21 11:59:55;;;;;;;402.83;156.93;;;;;;;;;;4981977;28;20216;-52
2024/01/21 12:02:21;;;;;;;392.63;152.13;;;;;;;;;;4982215;28;20289;-53
2024/01/21 12:04:47;;;;;;;393.17;153.03;;;;;;;;;;4976856;28;20193;-52
2024/01/21 12:07:13;;;;;;;416.23;169.17;;;;;;;;;;4987025;28;20310;-52
2024/01/21 12:09:39;;;;;;;397.37;158.20;;;1.90;73.50;;;;;;4985715;28;20228;-52
2024/01/21 12:12:06;;;;;;;435.90;172.70;;;;;;;;;;4983387;28;22296;-52
2024/01/21 12:14:32;;;;;;;406.97;156.37;;;;;;;;;;4984098;28;20213;-52
2024/01/21 12:16:58;;;;;;;411.77;158.63;;;;;;;;;;4985631;28;21978;-53
2024/01/21 12:19:27;;;;;;;406.13;161.00;;;;;;;;;;4978340;28;20221;-52
2024/01/21 12:21:53;;;;;;;377.80;147.90;;;;;;;;;;4992958;28;20216;-51
2024/01/21 12:24:22;;;;;;;399.93;154.00;;;2.10;58.30;;;;;;4979428;28;20224;-51
2024/01/21 12:26:48;;;;;;;390.23;149.47;;;;;;;;;;4988060;28;21786;-51
2024/01/21 12:29:14;;;;;;;411.40;163.70;;;;;;;;;;4986993;28;20281;-52
2024/01/21 12:31:41;;;;;;;397.13;153.47;;;;;;;;;;4993188;28;20184;-51
2024/01/21 12:34:11;;;;;;;389.73;150.07;;;2.50;52.30;;;;;;4974458;28;20253;-52
2024/01/21 12:36:49;;;;;;;389.07;150.73;;;2.50;51.40;;;;;;4972413;28;20221;-51
2024/01/21 12:39:15;;;;;;;408.97;159.00;;;2.60;49.80;;;;;;4966255;28;20488;-52
2024/01/21 12:41:41;;;;;;;399.70;155.27;;;;;;;;;;4978683;28;20227;-52
2024/01/21 12:44:07;;;;;;;439.67;175.37;;;;;;;;;;4990174;28;20197;-52
2024/01/21 12:46:33;;;;;;;401.47;156.40;;;;;;;;;;4991460;28;20292;-51
2024/01/21 12:49:00;;;;;;;413.83;160.30;;;;;;;;;;4967039;28;20222;-52
2024/01/21 12:51:28;;;;;;;399.27;152.17;;;;;;;;;;4973472;28;20662;-51
2024/01/21 12:53:54;;;;;;;414.93;168.30;;;2.90;54.90;;;;;;4968718;28;20670;-51
2024/01/21 12:56:20;;;;;;;436.40;169.17;;;;;;;;;;4976924;28;20214;-52
2024/01/21 12:58:46;;;;;;;395.93;151.87;;;;;;;;;;4989397;28;20236;-54
2024/01/21 13:01:12;;;;;;;411.03;161.33;;;;;;;;;;4990268;28;20227;-51
2024/01/21 13:03:39;;;;;;;400.67;156.67;;;;;;;;;;4994005;28;20545;-51
2024/01/21 13:06:06;;;;;;;413.67;162.30;;;;;;;;;;4993681;28;20239;-51
2024/01/21 13:08:32;;;;;;;423.70;163.47;;;;;;;;;;4987195;28;20216;-52
2024/01/21 13:10:59;;;;;;;401.50;154.57;;;;;;;;;;4990722;28;20694;-52
2024/01/21 13:13:25;;;;;;;405.80;157.73;;;;;;;;;;4987612;28;20971;-52
2024/01/21 13:15:51;;;;;;;458.97;184.83;;;;;;;;;;4983810;28;20275;-52
2024/01/21 13:18:17;;;;;;;443.90;180.33;;;;;;;;;;4990564;28;20228;-52
2024/01/21 13:20:43;;;;;;;391.90;151.43;;;;;;;;;;4999056;28;20229;-52
2024/01/21 13:23:09;;;;;;;419.73;165.97;;;;;;;;;;4991440;28;20189;-53
2024/01/21 13:25:36;;;;;;;380.03;144.33;;;;;;;;;;4998860;28;20216;-53
2024/01/21 13:28:14;;;;;;;387.27;153.00;;;;;;;;;;4994663;28;20232;-52
2024/01/21 13:30:49;;;;;;;420.07;165.80;;;;;;;;;;4995584;28;20216;-51